Tina-c — 2APY2 — position and weather

sailwx.info

Track history (hours):
 
Tides and Currents Weather Stations Pressure Air Temp Water Temp Dewpoint Dewpoint Depression Visibility Wind Speed Wind Dir Waves Ship Positions

Tina-c

Last reported at 2016-Sep-26 08:29 UTC. Time now 2016-Sep-29 22:11 UTC.
Position N 54°34' W 000°30'.

Length 99 m; draft 6.5 m.

Type: Cargo ship. MMSI: 235061987.

Date/timePositionNaut miles runAvg speedWind from/ knotsBaromVisibWave heightAir tempDewpointWater temp
2016-Sep-26 08:29N 54°34' W 000°30'39 6.6
2016-Sep-26 02:33N 54°04' E 000°13'50 5.5
2016-Sep-25 17:27N 53°24' E 001°05'14 4.7
2016-Sep-25 14:30N 53°12' E 001°18'9 4.4
2016-Sep-25 12:33N 53°05' E 001°25'5 5.5
2016-Sep-25 11:33N 53°01' E 001°30'6 6.3
2016-Sep-25 10:33N 52°56' E 001°37'7 7.2
2016-Sep-25 09:33N 52°51' E 001°46'16 6.6
2016-Sep-25 07:11N 52°36' E 001°54'18 5.9
2016-Sep-25 04:12N 52°19' E 001°52'18 5.0
2016-Sep-25 00:34N 52°01' E 001°49'14 7.0
2016-Sep-24 22:33N 51°47' E 001°49'8 7.6
2016-Sep-24 21:33N 51°39' E 001°50'16 7.8
2016-Sep-24 19:34N 51°24' E 001°44'8 8.3
2016-Sep-24 18:34N 51°16' E 001°40'7 7.4
2016-Sep-24 17:33N 51°09' E 001°36'5 5.4
2016-Sep-24 16:34N 51°04' E 001°35'14 7.1
2016-Sep-24 14:33N 50°51' E 001°24'58 5.3
2016-Sep-24 03:33N 50°21' E 000°05'7 7.3
2016-Sep-24 02:33N 50°19' W 000°06'8 7.8
2016-Sep-24 01:33N 50°17' W 000°18'9 8.0
2016-Sep-24 00:28N 50°14' W 000°31'176 6.2
2016-Sep-22 20:13N 49°07' W 004°42'70 4.4
2016-Sep-22 04:11N 48°00' W 005°15'4 6.4
2016-Sep-22 03:33N 47°58' W 005°10'17 5.8
2016-Sep-22 00:33N 47°47' W 004°50'47 5.9
2016-Sep-21 16:31N 47°18' W 003°54'43 6.1
2016-Sep-21 09:33N 46°53' W 003°04'37 5.8
2016-Sep-21 03:10N 46°30' W 002°21'3 5.7
2016-Sep-21 02:33N 46°28' W 002°17'49 5.5
2016-Sep-20 17:34N 46°05' W 001°15'0 0.0
2016-Sep-20 14:33N 46°04' W 001°14'0 0.1
2016-Sep-20 13:33N 46°05' W 001°14'0 0.0
2016-Sep-20 10:24N 46°05' W 001°15'0 0.0
2016-Sep-20 08:27N 46°05' W 001°15'0 0.0
2016-Sep-20 07:30N 46°05' W 001°15'0 0.0
2016-Sep-20 06:18N 46°05' W 001°15'0 0.0
2016-Sep-20 02:30N 46°05' W 001°14'0 0.0
2016-Sep-19 19:24N 46°04' W 001°15'0 0.1
2016-Sep-19 18:30N 46°04' W 001°14'0 0.0
2016-Sep-19 16:24N 46°04' W 001°14'0 0.0
2016-Sep-19 14:33N 46°04' W 001°14'0 0.0
2016-Sep-19 13:33N 46°04' W 001°14'0 0.1
2016-Sep-19 12:30N 46°05' W 001°14'0 0.0
2016-Sep-19 11:33N 46°05' W 001°14'0 0.1
2016-Sep-19 09:30N 46°05' W 001°15'0 0.0
2016-Sep-19 07:24N 46°05' W 001°15'0 0.0
2016-Sep-19 03:33N 46°04' W 001°14'3 3.2
2016-Sep-19 02:32N 46°06' W 001°19'  
Track history (hours):
 
Tides and Currents Weather Stations Pressure Air Temp Water Temp Dewpoint Dewpoint Depression Visibility Wind Speed Wind Dir Waves Ship Positions

Tina-c

Last reported at 2016-Sep-26 08:29 UTC. Time now 2016-Sep-29 22:11 UTC.
Position N 54°34' W 000°30'.

Length 99 m; draft 6.5 m.

Type: Cargo ship. MMSI: 235061987.

Date/timePositionNaut miles runAvg speedWind from/ knotsBaromVisibWave heightAir tempDewpointWater temp
2016-Sep-26 08:29N 54°34' W 000°30'39 6.6
2016-Sep-26 02:33N 54°04' E 000°13'50 5.5
2016-Sep-25 17:27N 53°24' E 001°05'14 4.7
2016-Sep-25 14:30N 53°12' E 001°18'9 4.4
2016-Sep-25 12:33N 53°05' E 001°25'5 5.5
2016-Sep-25 11:33N 53°01' E 001°30'6 6.3
2016-Sep-25 10:33N 52°56' E 001°37'7 7.2
2016-Sep-25 09:33N 52°51' E 001°46'16 6.6
2016-Sep-25 07:11N 52°36' E 001°54'18 5.9
2016-Sep-25 04:12N 52°19' E 001°52'18 5.0
2016-Sep-25 00:34N 52°01' E 001°49'14 7.0
2016-Sep-24 22:33N 51°47' E 001°49'8 7.6
2016-Sep-24 21:33N 51°39' E 001°50'16 7.8
2016-Sep-24 19:34N 51°24' E 001°44'8 8.3
2016-Sep-24 18:34N 51°16' E 001°40'7 7.4
2016-Sep-24 17:33N 51°09' E 001°36'5 5.4
2016-Sep-24 16:34N 51°04' E 001°35'14 7.1
2016-Sep-24 14:33N 50°51' E 001°24'58 5.3
2016-Sep-24 03:33N 50°21' E 000°05'7 7.3
2016-Sep-24 02:33N 50°19' W 000°06'8 7.8
2016-Sep-24 01:33N 50°17' W 000°18'9 8.0
2016-Sep-24 00:28N 50°14' W 000°31'176 6.2
2016-Sep-22 20:13N 49°07' W 004°42'70 4.4
2016-Sep-22 04:11N 48°00' W 005°15'4 6.4
2016-Sep-22 03:33N 47°58' W 005°10'17 5.8
2016-Sep-22 00:33N 47°47' W 004°50'47 5.9
2016-Sep-21 16:31N 47°18' W 003°54'43 6.1
2016-Sep-21 09:33N 46°53' W 003°04'37 5.8
2016-Sep-21 03:10N 46°30' W 002°21'3 5.7
2016-Sep-21 02:33N 46°28' W 002°17'49 5.5
2016-Sep-20 17:34N 46°05' W 001°15'0 0.0
2016-Sep-20 14:33N 46°04' W 001°14'0 0.1
2016-Sep-20 13:33N 46°05' W 001°14'0 0.0
2016-Sep-20 10:24N 46°05' W 001°15'0 0.0
2016-Sep-20 08:27N 46°05' W 001°15'0 0.0
2016-Sep-20 07:30N 46°05' W 001°15'0 0.0
2016-Sep-20 06:18N 46°05' W 001°15'0 0.0
2016-Sep-20 02:30N 46°05' W 001°14'0 0.0
2016-Sep-19 19:24N 46°04' W 001°15'0 0.1
2016-Sep-19 18:30N 46°04' W 001°14'0 0.0
2016-Sep-19 16:24N 46°04' W 001°14'0 0.0
2016-Sep-19 14:33N 46°04' W 001°14'0 0.0
2016-Sep-19 13:33N 46°04' W 001°14'0 0.1
2016-Sep-19 12:30N 46°05' W 001°14'0 0.0
2016-Sep-19 11:33N 46°05' W 001°14'0 0.1
2016-Sep-19 09:30N 46°05' W 001°15'0 0.0
2016-Sep-19 07:24N 46°05' W 001°15'0 0.0
2016-Sep-19 03:33N 46°04' W 001°14'3 3.2
2016-Sep-19 02:32N 46°06' W 001°19'  

Dump ship's entire track history